Time Latitude Longitude Accuracy (66% radius in meters) Altitude (meters) Speed (km/hour) Bearing (degrees) Battery (%) GPS flag
09:04:06 51.898283 107.665317 3 658.70001220703 0 0 60 1 delete
09:03:56 51.898283 107.665317 3.5 658.70001220703 0 0 60 1 delete
09:03:45 51.898283 107.665317 3.5 658.70001220703 0 0 60 1 delete
09:03:35 51.898283 107.665317 3.5 658.70001220703 0 0 60 1 delete
09:03:32 51.898288 107.665307 3.5 658.29998779297 0.21999999880791 209.87182617188 60 1 delete
09:03:24 51.898286 107.665320 3 658.40002441406 0 0 60 1 delete
09:03:14 51.898286 107.665320 5 658.40002441406 0 0 60 1 delete
09:03:03 51.898286 107.665320 4 658.40002441406 0 0 60 1 delete
09:02:53 51.898286 107.665320 4 658.40002441406 0 0 60 1 delete
09:02:42 51.898286 107.665320 4.5 658.40002441406 0 0 60 1 delete
09:02:32 51.898292 107.665326 3 658.90002441406 0.41999998688698 188.16284179688 60 1 delete
09:02:21 51.898311 107.665412 2 658 0.10999999940395 253.97644042969 60 1 delete
09:02:11 51.898333 107.665433 2 657.59997558594 0 0 60 1 delete
09:02:02 51.898338 107.665434 1.5 658.79998779297 0.52999997138977 97.355346679688 60 1 delete
09:02:00 51.898345 107.665392 2 658 1.039999961853 71.471557617188 60 1 delete
09:01:52 51.898344 107.665270 1.5 655.5 0.8299999833107 84.26513671875 60 1 delete
09:01:50 51.898342 107.665231 1.5 655.09997558594 1.1200000047684 60.66650390625 60 1 delete
09:01:44 51.898313 107.665126 1.5 653.20001220703 0.97999995946884 39.721069335938 60 1 delete
09:01:39 51.898279 107.665049 1 652.90002441406 0.62999999523163 74.185180664062 60 1 delete
09:01:35 51.898283 107.664985 1.5 653.70001220703 0.87999999523163 55.211791992188 60 1 delete
09:01:28 51.898258 107.664875 1.5 652.29998779297 1.039999961853 51.652221679688 60 1 delete
09:01:26 51.898244 107.664833 1.5 652.5 1.3899999856949 47.21923828125 60 1 delete
09:01:18 51.898188 107.664704 1.5 654.70001220703 1.289999961853 52.882690429688 60 1 delete
09:01:11 51.898142 107.664577 1.5 653.79998779297 1.3099999427795 49.498901367188 60 1 delete
09:01:07 51.898102 107.664502 1.5 653.29998779297 1.3199999332428 40.836181640625 60 1 delete
09:01:05 51.898081 107.664465 1.5 653.09997558594 1.4199999570847 43.70361328125 60 1 delete
09:00:57 51.898061 107.664354 1.5 652.5 1.4599999189377 68.587646484375 60 1 delete
09:00:55 51.898052 107.664310 1.5 652.90002441406 1.5199999809265 44.659423828125 60 1 delete
09:00:49 51.897987 107.664199 1.5 651.5 1.5099999904633 30.635375976562 60 1 delete
09:00:46 51.897948 107.664141 1.5 651.29998779297 1.4599999189377 35.650634765625 60 1 delete
09:00:44 51.897926 107.664091 1.5 651 1.4499999284744 34.69482421875 60 1 delete
09:00:38 51.897865 107.663956 1.5 650.70001220703 1.5299999713898 35.39794921875 60 1 delete
09:00:35 51.897835 107.663885 1.5 651.29998779297 1.5099999904633 54.6240234375 60 1 delete
09:00:33 51.897824 107.663821 1.5 651.90002441406 1.6499999761581 59.622802734375 60 1 delete
09:00:28 51.897794 107.663664 1.5 652.90002441406 1.6999999284744 51.119384765625 60 1 delete
09:00:24 51.897765 107.663523 1.5 653.59997558594 1.4800000190735 41.061401367188 60 1 delete
09:00:23 51.897755 107.663494 1.5 654.09997558594 1.5799999237061 51.43798828125 60 1 delete
09:00:17 51.897712 107.663338 1.5 656.40002441406 1.4800000190735 31.5087890625 60 1 delete
09:00:14 51.897668 107.663277 1.5 657.40002441406 1.7999999523163 32.272338867188 60 1 delete
09:00:12 51.897645 107.663230 2 656.59997558594 1.75 38.051147460938 60 1 delete
09:00:07 51.897565 107.663120 2 656.90002441406 1.9499999284744 40.506591796875 60 1 delete
09:00:02 51.897490 107.662994 2 656.90002441406 1.8299999237061 29.877319335938 60 1 delete
08:59:57 51.897425 107.662893 1.5 657.5 1.4299999475479 35.271606445312 60 1 delete
08:59:52 51.897390 107.662779 1.5 659.79998779297 1.3700000047684 34.381713867188 60 1 delete
08:59:49 51.897367 107.662749 1.5 661 1.2599999904633 7.7838134765625 60 1 delete
08:59:43 51.897264 107.662727 1.5 659.40002441406 1.5799999237061 359.13757324219 60 1 delete
08:59:41 51.897234 107.662731 1.5 659.5 1.4900000095367 358.61572265625 60 1 delete
08:59:36 51.897166 107.662727 1.5 659.09997558594 1.1899999380112 2.8125 60 1 delete
08:59:31 51.897099 107.662728 1.5 657.59997558594 1.4299999475479 3.603515625 60 1 delete
08:59:29 51.897068 107.662726 1.5 656.09997558594 1.6599999666214 358.86291503906 60 1 delete